sensor_id;sensor_type;location;lat;lon;timestamp;P1;durP1;ratioP1;P2;durP2;ratioP2
10653;SDS011;5375;51.250;6.776;2022-11-20T06:14:18;6.83;;;3.43;;
10653;SDS011;5375;51.250;6.776;2022-11-20T06:16:44;7.63;;;3.70;;
10653;SDS011;5375;51.250;6.776;2022-11-20T06:19:09;6.67;;;4.00;;
10653;SDS011;5375;51.250;6.776;2022-11-20T06:21:35;5.40;;;3.90;;
10653;SDS011;5375;51.250;6.776;2022-11-20T06:24:00;7.83;;;4.17;;
10653;SDS011;5375;51.250;6.776;2022-11-20T06:26:26;6.93;;;3.80;;
10653;SDS011;5375;51.250;6.776;2022-11-20T06:28:53;5.77;;;3.93;;
10653;SDS011;5375;51.250;6.776;2022-11-20T06:31:21;6.80;;;3.87;;
10653;SDS011;5375;51.250;6.776;2022-11-20T06:33:48;5.30;;;3.97;;
10653;SDS011;5375;51.250;6.776;2022-11-20T06:36:15;5.17;;;3.93;;
10653;SDS011;5375;51.250;6.776;2022-11-20T06:38:42;5.50;;;3.67;;
10653;SDS011;5375;51.250;6.776;2022-11-20T06:41:12;6.43;;;3.90;;
10653;SDS011;5375;51.250;6.776;2022-11-20T06:43:40;4.33;;;3.77;;
10653;SDS011;5375;51.250;6.776;2022-11-20T06:46:06;5.57;;;3.83;;
10653;SDS011;5375;51.250;6.776;2022-11-20T06:48:33;5.17;;;4.07;;
10653;SDS011;5375;51.250;6.776;2022-11-20T06:50:59;4.97;;;3.83;;
10653;SDS011;5375;51.250;6.776;2022-11-20T06:53:27;7.20;;;3.97;;
10653;SDS011;5375;51.250;6.776;2022-11-20T06:55:55;5.10;;;3.60;;
10653;SDS011;5375;51.250;6.776;2022-11-20T06:58:26;5.47;;;3.90;;
10653;SDS011;5375;51.250;6.776;2022-11-20T07:00:53;6.73;;;4.37;;
10653;SDS011;5375;51.250;6.776;2022-11-20T07:03:21;5.63;;;4.00;;
10653;SDS011;5375;51.250;6.776;2022-11-20T07:05:47;6.83;;;4.20;;
10653;SDS011;5375;51.250;6.776;2022-11-20T07:08:12;9.27;;;4.67;;
10653;SDS011;5375;51.250;6.776;2022-11-20T07:10:38;12.40;;;4.30;;
10653;SDS011;5375;51.250;6.776;2022-11-20T07:13:03;6.40;;;4.60;;
10653;SDS011;5375;51.250;6.776;2022-11-20T07:15:29;7.07;;;4.90;;
10653;SDS011;5375;51.250;6.776;2022-11-20T07:17:58;10.43;;;5.20;;
10653;SDS011;5375;51.250;6.776;2022-11-20T07:20:24;9.10;;;4.83;;
10653;SDS011;5375;51.250;6.776;2022-11-20T07:22:56;7.10;;;5.00;;
10653;SDS011;5375;51.250;6.776;2022-11-20T07:25:25;7.67;;;4.80;;
10653;SDS011;5375;51.250;6.776;2022-11-20T07:27:52;9.87;;;5.80;;
10653;SDS011;5375;51.250;6.776;2022-11-20T07:30:18;8.90;;;5.17;;
10653;SDS011;5375;51.250;6.776;2022-11-20T07:32:47;14.20;;;5.77;;
10653;SDS011;5375;51.250;6.776;2022-11-20T07:35:15;10.77;;;5.50;;
10653;SDS011;5375;51.250;6.776;2022-11-20T07:37:40;11.80;;;5.80;;
10653;SDS011;5375;51.250;6.776;2022-11-20T07:40:10;16.07;;;5.73;;
10653;SDS011;5375;51.250;6.776;2022-11-20T07:42:49;6.80;;;5.57;;
10653;SDS011;5375;51.250;6.776;2022-11-20T07:45:16;8.53;;;5.83;;
10653;SDS011;5375;51.250;6.776;2022-11-20T07:47:42;9.47;;;6.17;;
10653;SDS011;5375;51.250;6.776;2022-11-20T07:50:11;11.23;;;5.67;;
10653;SDS011;5375;51.250;6.776;2022-11-20T07:52:37;9.50;;;6.13;;
10653;SDS011;5375;51.250;6.776;2022-11-20T07:55:03;10.20;;;5.60;;
10653;SDS011;5375;51.250;6.776;2022-11-20T07:57:30;11.40;;;5.87;;
10653;SDS011;5375;51.250;6.776;2022-11-20T07:59:55;9.80;;;5.53;;
10653;SDS011;5375;51.250;6.776;2022-11-20T08:02:24;10.50;;;6.27;;
10653;SDS011;5375;51.250;6.776;2022-11-20T08:04:52;8.50;;;6.20;;
10653;SDS011;5375;51.250;6.776;2022-11-20T08:07:21;11.20;;;6.20;;
10653;SDS011;5375;51.250;6.776;2022-11-20T08:09:47;11.03;;;6.57;;
10653;SDS011;5375;51.250;6.776;2022-11-20T08:12:19;9.63;;;5.77;;
10653;SDS011;5375;51.250;6.776;2022-11-20T08:15:07;10.90;;;6.27;;
10653;SDS011;5375;51.250;6.776;2022-11-20T08:17:33;9.83;;;6.37;;
10653;SDS011;5375;51.250;6.776;2022-11-20T08:19:58;15.27;;;6.30;;
10653;SDS011;5375;51.250;6.776;2022-11-20T08:22:24;7.60;;;5.37;;
10653;SDS011;5375;51.250;6.776;2022-11-20T08:24:50;10.90;;;6.23;;
10653;SDS011;5375;51.250;6.776;2022-11-20T08:27:15;8.97;;;6.10;;
10653;SDS011;5375;51.250;6.776;2022-11-20T08:29:41;9.57;;;5.90;;
10653;SDS011;5375;51.250;6.776;2022-11-20T08:32:07;9.03;;;6.00;;
10653;SDS011;5375;51.250;6.776;2022-11-20T08:34:32;8.37;;;5.80;;
10653;SDS011;5375;51.250;6.776;2022-11-20T08:36:58;9.00;;;5.87;;
10653;SDS011;5375;51.250;6.776;2022-11-20T08:39:24;8.07;;;5.77;;
10653;SDS011;5375;51.250;6.776;2022-11-20T08:41:50;6.90;;;5.47;;
10653;SDS011;5375;51.250;6.776;2022-11-20T08:44:17;9.63;;;6.30;;
10653;SDS011;5375;51.250;6.776;2022-11-20T08:46:46;7.87;;;6.00;;
10653;SDS011;5375;51.250;6.776;2022-11-20T08:49:12;8.17;;;5.33;;
10653;SDS011;5375;51.250;6.776;2022-11-20T08:51:39;10.27;;;5.97;;
10653;SDS011;5375;51.250;6.776;2022-11-20T08:54:06;8.93;;;6.13;;
10653;SDS011;5375;51.250;6.776;2022-11-20T08:56:33;8.50;;;5.80;;
10653;SDS011;5375;51.250;6.776;2022-11-20T08:58:59;7.30;;;5.90;;
10653;SDS011;5375;51.250;6.776;2022-11-20T09:01:26;7.97;;;5.60;;
10653;SDS011;5375;51.250;6.776;2022-11-20T09:03:52;9.90;;;6.10;;
10653;SDS011;5375;51.250;6.776;2022-11-20T09:06:20;9.43;;;5.47;;
10653;SDS011;5375;51.250;6.776;2022-11-20T09:08:45;8.57;;;5.43;;
10653;SDS011;5375;51.250;6.776;2022-11-20T09:11:11;7.60;;;5.40;;
10653;SDS011;5375;51.250;6.776;2022-11-20T09:13:37;7.70;;;5.77;;
10653;SDS011;5375;51.250;6.776;2022-11-20T09:16:06;8.37;;;5.60;;
10653;SDS011;5375;51.250;6.776;2022-11-20T09:18:33;7.70;;;5.33;;
10653;SDS011;5375;51.250;6.776;2022-11-20T09:21:12;6.33;;;4.67;;
10653;SDS011;5375;51.250;6.776;2022-11-20T09:23:38;8.50;;;5.10;;
10653;SDS011;5375;51.250;6.776;2022-11-20T09:26:05;6.93;;;5.43;;
10653;SDS011;5375;51.250;6.776;2022-11-20T09:28:33;6.37;;;4.90;;
10653;SDS011;5375;51.250;6.776;2022-11-20T09:30:59;6.87;;;5.00;;
10653;SDS011;5375;51.250;6.776;2022-11-20T09:33:25;7.23;;;5.00;;
10653;SDS011;5375;51.250;6.776;2022-11-20T09:35:51;7.80;;;5.07;;
10653;SDS011;5375;51.250;6.776;2022-11-20T09:38:17;6.63;;;4.93;;
10653;SDS011;5375;51.250;6.776;2022-11-20T09:40:56;6.50;;;5.30;;
10653;SDS011;5375;51.250;6.776;2022-11-20T09:46:34;5.97;;;5.00;;
10653;SDS011;5375;51.250;6.776;2022-11-20T09:49:32;7.23;;;5.60;;
10653;SDS011;5375;51.250;6.776;2022-11-20T09:52:10;5.73;;;4.93;;
10653;SDS011;5375;51.250;6.776;2022-11-20T09:54:43;7.23;;;4.93;;
10653;SDS011;5375;51.250;6.776;2022-11-20T09:57:12;5.77;;;4.60;;
10653;SDS011;5375;51.250;6.776;2022-11-20T09:59:43;5.87;;;4.97;;
10653;SDS011;5375;51.250;6.776;2022-11-20T10:02:16;5.73;;;5.13;;
10653;SDS011;5375;51.250;6.776;2022-11-20T10:30:10;7.40;;;4.90;;
10653;SDS011;5375;51.250;6.776;2022-11-20T10:32:39;7.30;;;4.47;;
10653;SDS011;5375;51.250;6.776;2022-11-20T10:37:40;5.47;;;4.63;;
10653;SDS011;5375;51.250;6.776;2022-11-20T10:43:02;5.13;;;4.63;;
10653;SDS011;5375;51.250;6.776;2022-11-20T10:45:38;6.87;;;4.90;;
10653;SDS011;5375;51.250;6.776;2022-11-20T10:48:23;5.13;;;4.50;;
10653;SDS011;5375;51.250;6.776;2022-11-20T10:59:04;5.23;;;4.30;;
10653;SDS011;5375;51.250;6.776;2022-11-20T11:01:49;7.43;;;4.90;;
10653;SDS011;5375;51.250;6.776;2022-11-20T11:04:35;7.97;;;5.57;;
10653;SDS011;5375;51.250;6.776;2022-11-20T11:09:35;5.97;;;4.40;;
10653;SDS011;5375;51.250;6.776;2022-11-20T11:12:07;5.77;;;4.87;;
10653;SDS011;5375;51.250;6.776;2022-11-20T11:14:50;5.70;;;4.80;;
10653;SDS011;5375;51.250;6.776;2022-11-20T11:17:21;5.33;;;4.80;;
10653;SDS011;5375;51.250;6.776;2022-11-20T11:23:04;6.30;;;5.17;;
10653;SDS011;5375;51.250;6.776;2022-11-20T11:25:31;6.63;;;4.90;;
10653;SDS011;5375;51.250;6.776;2022-11-20T11:28:43;8.27;;;5.70;;
10653;SDS011;5375;51.250;6.776;2022-11-20T11:30:51;12.40;;;5.70;;
10653;SDS011;5375;51.250;6.776;2022-11-20T11:33:30;11.40;;;5.63;;
10653;SDS011;5375;51.250;6.776;2022-11-20T11:36:00;7.33;;;5.50;;
10653;SDS011;5375;51.250;6.776;2022-11-20T11:38:42;10.77;;;6.43;;
10653;SDS011;5375;51.250;6.776;2022-11-20T11:41:10;9.97;;;5.90;;
10653;SDS011;5375;51.250;6.776;2022-11-20T11:43:54;12.10;;;6.57;;
10653;SDS011;5375;51.250;6.776;2022-11-20T11:46:41;13.30;;;7.30;;
10653;SDS011;5375;51.250;6.776;2022-11-20T11:49:17;10.37;;;6.93;;
10653;SDS011;5375;51.250;6.776;2022-11-20T11:51:52;10.07;;;6.43;;
10653;SDS011;5375;51.250;6.776;2022-11-20T11:54:38;12.77;;;6.80;;
10653;SDS011;5375;51.250;6.776;2022-11-20T12:10:37;12.80;;;7.30;;
10653;SDS011;5375;51.250;6.776;2022-11-20T12:15:58;10.50;;;7.27;;
10653;SDS011;5375;51.250;6.776;2022-11-20T12:18:25;8.60;;;6.93;;
10653;SDS011;5375;51.250;6.776;2022-11-20T12:23:28;9.93;;;6.57;;
10653;SDS011;5375;51.250;6.776;2022-11-20T12:34:57;10.47;;;6.83;;
10653;SDS011;5375;51.250;6.776;2022-11-20T12:45:49;9.83;;;6.37;;
10653;SDS011;5375;51.250;6.776;2022-11-20T12:48:27;8.80;;;5.90;;
10653;SDS011;5375;51.250;6.776;2022-11-20T12:56:27;10.70;;;6.60;;
10653;SDS011;5375;51.250;6.776;2022-11-20T13:01:49;8.27;;;6.20;;
10653;SDS011;5375;51.250;6.776;2022-11-20T13:04:23;9.33;;;6.30;;
10653;SDS011;5375;51.250;6.776;2022-11-20T13:07:07;8.50;;;5.93;;
10653;SDS011;5375;51.250;6.776;2022-11-20T13:09:38;9.90;;;6.03;;
10653;SDS011;5375;51.250;6.776;2022-11-20T13:17:24;11.43;;;5.73;;
10653;SDS011;5375;51.250;6.776;2022-11-20T13:20:13;9.77;;;6.00;;
10653;SDS011;5375;51.250;6.776;2022-11-20T13:22:48;8.83;;;6.00;;
10653;SDS011;5375;51.250;6.776;2022-11-20T13:25:29;9.73;;;5.57;;
10653;SDS011;5375;51.250;6.776;2022-11-20T13:28:00;15.27;;;5.70;;
10653;SDS011;5375;51.250;6.776;2022-11-20T13:30:29;9.60;;;5.83;;
10653;SDS011;5375;51.250;6.776;2022-11-20T13:35:54;11.90;;;6.00;;
10653;SDS011;5375;51.250;6.776;2022-11-20T13:38:24;8.27;;;5.70;;
10653;SDS011;5375;51.250;6.776;2022-11-20T13:43:35;9.63;;;5.70;;
10653;SDS011;5375;51.250;6.776;2022-11-20T13:46:08;9.57;;;5.70;;
10653;SDS011;5375;51.250;6.776;2022-11-20T13:48:41;10.70;;;5.60;;
10653;SDS011;5375;51.250;6.776;2022-11-20T13:51:23;10.43;;;5.40;;
10653;SDS011;5375;51.250;6.776;2022-11-20T13:57:25;9.67;;;5.50;;
10653;SDS011;5375;51.250;6.776;2022-11-20T14:02:43;9.20;;;5.63;;
10653;SDS011;5375;51.250;6.776;2022-11-20T14:05:25;8.63;;;5.33;;
10653;SDS011;5375;51.250;6.776;2022-11-20T14:07:59;7.90;;;5.40;;
10653;SDS011;5375;51.250;6.776;2022-11-20T14:10:28;7.50;;;5.17;;
10653;SDS011;5375;51.250;6.776;2022-11-20T14:12:55;9.47;;;5.50;;
10653;SDS011;5375;51.250;6.776;2022-11-20T14:15:28;10.17;;;5.10;;
10653;SDS011;5375;51.250;6.776;2022-11-20T14:17:55;8.20;;;5.27;;
10653;SDS011;5375;51.250;6.776;2022-11-20T14:20:23;8.60;;;5.80;;
10653;SDS011;5375;51.250;6.776;2022-11-20T14:22:52;7.07;;;5.77;;
10653;SDS011;5375;51.250;6.776;2022-11-20T14:25:20;7.23;;;4.93;;
10653;SDS011;5375;51.250;6.776;2022-11-20T14:27:58;8.90;;;5.40;;
10653;SDS011;5375;51.250;6.776;2022-11-20T14:30:41;9.07;;;5.17;;
10653;SDS011;5375;51.250;6.776;2022-11-20T14:33:09;9.37;;;5.37;;
10653;SDS011;5375;51.250;6.776;2022-11-20T14:35:40;6.75;;;4.93;;
10653;SDS011;5375;51.250;6.776;2022-11-20T14:38:20;8.33;;;5.40;;
10653;SDS011;5375;51.250;6.776;2022-11-20T14:40:49;8.37;;;5.13;;
10653;SDS011;5375;51.250;6.776;2022-11-20T14:43:18;9.75;;;5.47;;
10653;SDS011;5375;51.250;6.776;2022-11-20T14:46:02;9.60;;;5.77;;
10653;SDS011;5375;51.250;6.776;2022-11-20T14:48:46;10.00;;;5.60;;
10653;SDS011;5375;51.250;6.776;2022-11-20T14:51:28;8.03;;;5.20;;
10653;SDS011;5375;51.250;6.776;2022-11-20T14:54:07;10.83;;;5.30;;
10653;SDS011;5375;51.250;6.776;2022-11-20T14:56:37;7.90;;;5.80;;
10653;SDS011;5375;51.250;6.776;2022-11-20T14:59:03;8.27;;;6.43;;
10653;SDS011;5375;51.250;6.776;2022-11-20T15:01:29;9.50;;;6.77;;
10653;SDS011;5375;51.250;6.776;2022-11-20T15:04:06;10.00;;;6.88;;
10653;SDS011;5375;51.250;6.776;2022-11-20T15:06:35;10.70;;;8.10;;
10653;SDS011;5375;51.250;6.776;2022-11-20T15:09:02;14.38;;;8.85;;
10653;SDS011;5375;51.250;6.776;2022-11-20T15:11:30;12.90;;;9.80;;
10653;SDS011;5375;51.250;6.776;2022-11-20T15:13:57;15.60;;;10.73;;
10653;SDS011;5375;51.250;6.776;2022-11-20T15:16:27;15.30;;;11.13;;
10653;SDS011;5375;51.250;6.776;2022-11-20T15:18:53;16.07;;;11.13;;
10653;SDS011;5375;51.250;6.776;2022-11-20T15:21:19;16.27;;;11.57;;
10653;SDS011;5375;51.250;6.776;2022-11-20T15:23:46;15.80;;;11.37;;
10653;SDS011;5375;51.250;6.776;2022-11-20T15:26:12;14.53;;;11.47;;
10653;SDS011;5375;51.250;6.776;2022-11-20T15:28:41;16.10;;;11.53;;
10653;SDS011;5375;51.250;6.776;2022-11-20T15:31:11;16.43;;;11.43;;
10653;SDS011;5375;51.250;6.776;2022-11-20T15:33:37;14.48;;;11.70;;
10653;SDS011;5375;51.250;6.776;2022-11-20T15:36:03;14.97;;;11.63;;
10653;SDS011;5375;51.250;6.776;2022-11-20T15:38:29;17.17;;;12.93;;
10653;SDS011;5375;51.250;6.776;2022-11-20T15:40:55;16.13;;;11.20;;
10653;SDS011;5375;51.250;6.776;2022-11-20T15:43:21;16.87;;;12.20;;
10653;SDS011;5375;51.250;6.776;2022-11-20T15:45:53;14.13;;;11.53;;
10653;SDS011;5375;51.250;6.776;2022-11-20T15:48:24;14.37;;;11.63;;
10653;SDS011;5375;51.250;6.776;2022-11-20T15:50:56;16.97;;;11.80;;
10653;SDS011;5375;51.250;6.776;2022-11-20T15:53:31;15.90;;;11.23;;
10653;SDS011;5375;51.250;6.776;2022-11-20T15:55:57;15.67;;;11.37;;
10653;SDS011;5375;51.250;6.776;2022-11-20T15:58:22;14.20;;;10.50;;
10653;SDS011;5375;51.250;6.776;2022-11-20T16:00:54;13.20;;;10.80;;
10653;SDS011;5375;51.250;6.776;2022-11-20T16:03:20;14.20;;;10.23;;
10653;SDS011;5375;51.250;6.776;2022-11-20T16:05:47;15.07;;;11.23;;
10653;SDS011;5375;51.250;6.776;2022-11-20T16:08:12;13.63;;;10.50;;
10653;SDS011;5375;51.250;6.776;2022-11-20T16:10:38;13.00;;;10.23;;
10653;SDS011;5375;51.250;6.776;2022-11-20T16:13:05;14.37;;;9.47;;
10653;SDS011;5375;51.250;6.776;2022-11-20T16:15:57;13.27;;;10.27;;
10653;SDS011;5375;51.250;6.776;2022-11-20T16:18:24;11.37;;;8.83;;
10653;SDS011;5375;51.250;6.776;2022-11-20T16:20:51;12.87;;;9.23;;
10653;SDS011;5375;51.250;6.776;2022-11-20T16:23:18;14.17;;;10.10;;
10653;SDS011;5375;51.250;6.776;2022-11-20T16:25:45;12.97;;;10.20;;
10653;SDS011;5375;51.250;6.776;2022-11-20T16:28:11;14.83;;;10.23;;
10653;SDS011;5375;51.250;6.776;2022-11-20T16:30:37;16.83;;;10.10;;
10653;SDS011;5375;51.250;6.776;2022-11-20T16:33:04;13.67;;;9.77;;
10653;SDS011;5375;51.250;6.776;2022-11-20T16:35:35;14.23;;;9.77;;
10653;SDS011;5375;51.250;6.776;2022-11-20T16:38:00;14.73;;;9.87;;
10653;SDS011;5375;51.250;6.776;2022-11-20T16:40:26;12.83;;;9.87;;
10653;SDS011;5375;51.250;6.776;2022-11-20T16:42:51;14.68;;;9.70;;
10653;SDS011;5375;51.250;6.776;2022-11-20T16:45:17;14.10;;;9.50;;
10653;SDS011;5375;51.250;6.776;2022-11-20T16:47:43;16.00;;;10.07;;
10653;SDS011;5375;51.250;6.776;2022-11-20T16:50:09;14.43;;;9.47;;
10653;SDS011;5375;51.250;6.776;2022-11-20T16:52:35;14.17;;;9.20;;
10653;SDS011;5375;51.250;6.776;2022-11-20T16:55:00;15.83;;;9.30;;
10653;SDS011;5375;51.250;6.776;2022-11-20T16:57:30;13.30;;;9.17;;
10653;SDS011;5375;51.250;6.776;2022-11-20T16:59:58;12.73;;;8.43;;
10653;SDS011;5375;51.250;6.776;2022-11-20T17:02:24;13.00;;;9.30;;
10653;SDS011;5375;51.250;6.776;2022-11-20T17:04:50;11.20;;;8.20;;
10653;SDS011;5375;51.250;6.776;2022-11-20T17:07:16;12.23;;;8.43;;
10653;SDS011;5375;51.250;6.776;2022-11-20T17:09:42;11.00;;;8.40;;
10653;SDS011;5375;51.250;6.776;2022-11-20T17:12:07;11.37;;;8.60;;
10653;SDS011;5375;51.250;6.776;2022-11-20T17:14:33;12.07;;;8.40;;
10653;SDS011;5375;51.250;6.776;2022-11-20T17:16:59;11.73;;;8.30;;
10653;SDS011;5375;51.250;6.776;2022-11-20T17:19:25;9.93;;;7.87;;
10653;SDS011;5375;51.250;6.776;2022-11-20T17:21:50;11.60;;;8.00;;
10653;SDS011;5375;51.250;6.776;2022-11-20T17:24:16;10.60;;;8.10;;
10653;SDS011;5375;51.250;6.776;2022-11-20T17:26:42;11.30;;;7.47;;
10653;SDS011;5375;51.250;6.776;2022-11-20T17:29:13;8.80;;;7.40;;
10653;SDS011;5375;51.250;6.776;2022-11-20T17:31:40;12.47;;;7.73;;
10653;SDS011;5375;51.250;6.776;2022-11-20T17:34:09;9.73;;;7.40;;
10653;SDS011;5375;51.250;6.776;2022-11-20T17:36:37;11.13;;;7.60;;
10653;SDS011;5375;51.250;6.776;2022-11-20T17:39:09;10.03;;;7.47;;
10653;SDS011;5375;51.250;6.776;2022-11-20T17:41:38;10.00;;;6.93;;
10653;SDS011;5375;51.250;6.776;2022-11-20T17:44:05;11.20;;;7.10;;
10653;SDS011;5375;51.250;6.776;2022-11-20T17:46:34;8.60;;;6.70;;
10653;SDS011;5375;51.250;6.776;2022-11-20T17:49:00;8.00;;;6.68;;
10653;SDS011;5375;51.250;6.776;2022-11-20T17:51:28;9.83;;;7.10;;
10653;SDS011;5375;51.250;6.776;2022-11-20T17:53:56;8.60;;;6.80;;
10653;SDS011;5375;51.250;6.776;2022-11-20T17:56:23;8.97;;;6.43;;
10653;SDS011;5375;51.250;6.776;2022-11-20T17:59:08;10.30;;;6.37;;
10653;SDS011;5375;51.250;6.776;2022-11-20T18:01:36;11.33;;;6.60;;
10653;SDS011;5375;51.250;6.776;2022-11-20T18:04:03;8.17;;;6.80;;
10653;SDS011;5375;51.250;6.776;2022-11-20T18:06:29;8.27;;;6.90;;
10653;SDS011;5375;51.250;6.776;2022-11-20T18:08:58;9.03;;;6.73;;
10653;SDS011;5375;51.250;6.776;2022-11-20T18:11:26;9.10;;;6.40;;
10653;SDS011;5375;51.250;6.776;2022-11-20T18:13:54;9.00;;;6.30;;
10653;SDS011;5375;51.250;6.776;2022-11-20T18:16:41;11.00;;;6.17;;
10653;SDS011;5375;51.250;6.776;2022-11-20T18:19:18;9.63;;;6.60;;
10653;SDS011;5375;51.250;6.776;2022-11-20T18:21:49;7.47;;;6.25;;
10653;SDS011;5375;51.250;6.776;2022-11-20T18:24:15;10.83;;;7.00;;
10653;SDS011;5375;51.250;6.776;2022-11-20T18:26:41;9.50;;;6.20;;
10653;SDS011;5375;51.250;6.776;2022-11-20T18:29:07;10.13;;;5.97;;
10653;SDS011;5375;51.250;6.776;2022-11-20T18:31:33;9.38;;;5.90;;
10653;SDS011;5375;51.250;6.776;2022-11-20T18:33:59;8.53;;;6.63;;
10653;SDS011;5375;51.250;6.776;2022-11-20T18:36:26;7.70;;;6.13;;
10653;SDS011;5375;51.250;6.776;2022-11-20T18:38:54;17.77;;;6.47;;
10653;SDS011;5375;51.250;6.776;2022-11-20T18:41:22;12.40;;;6.20;;
10653;SDS011;5375;51.250;6.776;2022-11-20T18:44:13;14.45;;;6.00;;
10653;SDS011;5375;51.250;6.776;2022-11-20T18:47:05;12.40;;;5.90;;
10653;SDS011;5375;51.250;6.776;2022-11-20T18:49:32;9.60;;;5.53;;
10653;SDS011;5375;51.250;6.776;2022-11-20T18:51:58;9.23;;;5.87;;
10653;SDS011;5375;51.250;6.776;2022-11-20T18:54:24;8.90;;;5.67;;
10653;SDS011;5375;51.250;6.776;2022-11-20T18:56:50;7.28;;;5.28;;
10653;SDS011;5375;51.250;6.776;2022-11-20T18:59:16;14.97;;;5.73;;
10653;SDS011;5375;51.250;6.776;2022-11-20T19:01:43;13.10;;;6.10;;
10653;SDS011;5375;51.250;6.776;2022-11-20T19:04:10;5.80;;;5.03;;
10653;SDS011;5375;51.250;6.776;2022-11-20T19:06:37;8.40;;;5.43;;
10653;SDS011;5375;51.250;6.776;2022-11-20T19:09:04;5.82;;;4.65;;
10653;SDS011;5375;51.250;6.776;2022-11-20T19:11:32;6.82;;;5.43;;
10653;SDS011;5375;51.250;6.776;2022-11-20T19:13:58;9.03;;;5.10;;
10653;SDS011;5375;51.250;6.776;2022-11-20T19:16:24;7.03;;;5.20;;
10653;SDS011;5375;51.250;6.776;2022-11-20T19:18:50;8.07;;;5.10;;
10653;SDS011;5375;51.250;6.776;2022-11-20T19:21:20;6.17;;;4.80;;
10653;SDS011;5375;51.250;6.776;2022-11-20T19:23:47;6.20;;;4.60;;
10653;SDS011;5375;51.250;6.776;2022-11-20T19:26:14;6.10;;;4.60;;
10653;SDS011;5375;51.250;6.776;2022-11-20T19:28:40;8.97;;;4.83;;
10653;SDS011;5375;51.250;6.776;2022-11-20T19:31:07;9.07;;;4.77;;
10653;SDS011;5375;51.250;6.776;2022-11-20T19:33:34;7.77;;;5.03;;
10653;SDS011;5375;51.250;6.776;2022-11-20T19:36:09;5.00;;;4.30;;
10653;SDS011;5375;51.250;6.776;2022-11-20T19:38:39;5.87;;;4.13;;
10653;SDS011;5375;51.250;6.776;2022-11-20T19:41:06;4.80;;;4.10;;
10653;SDS011;5375;51.250;6.776;2022-11-20T19:43:32;6.13;;;4.33;;
10653;SDS011;5375;51.250;6.776;2022-11-20T19:45:58;6.15;;;4.32;;
10653;SDS011;5375;51.250;6.776;2022-11-20T19:48:24;7.77;;;4.13;;
10653;SDS011;5375;51.250;6.776;2022-11-20T19:50:49;7.37;;;4.47;;
10653;SDS011;5375;51.250;6.776;2022-11-20T19:53:15;5.15;;;3.67;;
10653;SDS011;5375;51.250;6.776;2022-11-20T19:55:42;8.27;;;4.05;;
10653;SDS011;5375;51.250;6.776;2022-11-20T19:58:27;6.07;;;4.30;;
10653;SDS011;5375;51.250;6.776;2022-11-20T20:00:53;6.57;;;3.93;;
10653;SDS011;5375;51.250;6.776;2022-11-20T20:03:19;5.55;;;4.03;;
10653;SDS011;5375;51.250;6.776;2022-11-20T20:05:45;10.10;;;4.23;;
10653;SDS011;5375;51.250;6.776;2022-11-20T20:08:11;5.47;;;3.57;;
10653;SDS011;5375;51.250;6.776;2022-11-20T20:10:37;6.03;;;3.90;;
10653;SDS011;5375;51.250;6.776;2022-11-20T20:13:03;5.23;;;4.10;;
10653;SDS011;5375;51.250;6.776;2022-11-20T20:15:29;9.60;;;4.57;;
10653;SDS011;5375;51.250;6.776;2022-11-20T20:17:55;4.45;;;3.50;;
10653;SDS011;5375;51.250;6.776;2022-11-20T20:20:21;6.10;;;3.90;;
10653;SDS011;5375;51.250;6.776;2022-11-20T20:22:47;6.77;;;3.70;;
10653;SDS011;5375;51.250;6.776;2022-11-20T20:25:13;5.00;;;3.80;;
10653;SDS011;5375;51.250;6.776;2022-11-20T20:27:38;5.40;;;3.43;;
10653;SDS011;5375;51.250;6.776;2022-11-20T20:30:04;7.80;;;3.47;;
10653;SDS011;5375;51.250;6.776;2022-11-20T20:32:32;5.90;;;3.57;;
10653;SDS011;5375;51.250;6.776;2022-11-20T20:34:57;6.53;;;3.40;;
10653;SDS011;5375;51.250;6.776;2022-11-20T20:37:23;6.22;;;3.30;;
10653;SDS011;5375;51.250;6.776;2022-11-20T20:39:49;5.63;;;3.73;;
10653;SDS011;5375;51.250;6.776;2022-11-20T20:42:15;5.00;;;3.20;;
10653;SDS011;5375;51.250;6.776;2022-11-20T20:44:41;4.55;;;3.30;;
10653;SDS011;5375;51.250;6.776;2022-11-20T20:47:39;7.10;;;3.80;;
10653;SDS011;5375;51.250;6.776;2022-11-20T20:50:06;6.78;;;3.08;;
10653;SDS011;5375;51.250;6.776;2022-11-20T20:52:34;4.77;;;3.27;;
10653;SDS011;5375;51.250;6.776;2022-11-20T20:55:00;4.07;;;3.07;;
10653;SDS011;5375;51.250;6.776;2022-11-20T20:57:26;4.85;;;3.05;;
10653;SDS011;5375;51.250;6.776;2022-11-20T20:59:52;6.88;;;3.35;;
10653;SDS011;5375;51.250;6.776;2022-11-20T21:02:19;4.17;;;2.97;;
10653;SDS011;5375;51.250;6.776;2022-11-20T21:04:45;5.38;;;3.40;;
10653;SDS011;5375;51.250;6.776;2022-11-20T21:07:11;7.23;;;3.13;;
10653;SDS011;5375;51.250;6.776;2022-11-20T21:09:37;7.30;;;3.00;;
10653;SDS011;5375;51.250;6.776;2022-11-20T21:12:02;5.10;;;2.92;;
10653;SDS011;5375;51.250;6.776;2022-11-20T21:14:28;4.63;;;2.90;;
10653;SDS011;5375;51.250;6.776;2022-11-20T21:16:54;6.40;;;3.07;;
10653;SDS011;5375;51.250;6.776;2022-11-20T21:19:20;3.95;;;2.90;;
10653;SDS011;5375;51.250;6.776;2022-11-20T21:21:45;4.23;;;2.90;;
10653;SDS011;5375;51.250;6.776;2022-11-20T21:24:23;5.00;;;3.00;;
10653;SDS011;5375;51.250;6.776;2022-11-20T21:26:59;6.30;;;2.80;;
10653;SDS011;5375;51.250;6.776;2022-11-20T21:29:29;3.90;;;3.00;;
10653;SDS011;5375;51.250;6.776;2022-11-20T21:31:55;5.10;;;2.80;;
10653;SDS011;5375;51.250;6.776;2022-11-20T21:34:22;6.50;;;2.80;;
10653;SDS011;5375;51.250;6.776;2022-11-20T21:36:49;4.50;;;2.90;;
10653;SDS011;5375;51.250;6.776;2022-11-20T21:39:15;6.07;;;3.17;;
10653;SDS011;5375;51.250;6.776;2022-11-20T21:41:41;4.93;;;2.95;;
10653;SDS011;5375;51.250;6.776;2022-11-20T21:44:08;4.07;;;2.97;;
10653;SDS011;5375;51.250;6.776;2022-11-20T21:46:38;3.30;;;2.40;;
10653;SDS011;5375;51.250;6.776;2022-11-20T21:49:06;4.90;;;2.77;;
10653;SDS011;5375;51.250;6.776;2022-11-20T21:51:31;4.53;;;2.67;;
10653;SDS011;5375;51.250;6.776;2022-11-20T21:53:57;5.23;;;2.90;;
10653;SDS011;5375;51.250;6.776;2022-11-20T21:56:23;4.30;;;2.80;;
10653;SDS011;5375;51.250;6.776;2022-11-20T21:58:50;6.07;;;2.97;;
10653;SDS011;5375;51.250;6.776;2022-11-20T22:03:48;4.57;;;2.80;;
10653;SDS011;5375;51.250;6.776;2022-11-20T22:06:14;4.10;;;2.60;;
10653;SDS011;5375;51.250;6.776;2022-11-20T22:08:40;3.13;;;2.77;;
10653;SDS011;5375;51.250;6.776;2022-11-20T22:11:07;5.43;;;2.80;;
10653;SDS011;5375;51.250;6.776;2022-11-20T22:13:34;4.83;;;2.83;;
10653;SDS011;5375;51.250;6.776;2022-11-20T22:16:18;4.93;;;2.57;;
10653;SDS011;5375;51.250;6.776;2022-11-20T22:18:45;4.67;;;2.50;;
10653;SDS011;5375;51.250;6.776;2022-11-20T22:21:15;5.43;;;2.57;;
10653;SDS011;5375;51.250;6.776;2022-11-20T22:23:42;5.57;;;3.23;;
10653;SDS011;5375;51.250;6.776;2022-11-20T22:26:08;4.23;;;2.43;;
10653;SDS011;5375;51.250;6.776;2022-11-20T22:28:36;4.50;;;2.60;;
10653;SDS011;5375;51.250;6.776;2022-11-20T22:31:02;4.33;;;2.87;;
10653;SDS011;5375;51.250;6.776;2022-11-20T22:33:29;4.77;;;2.30;;
10653;SDS011;5375;51.250;6.776;2022-11-20T22:38:31;6.87;;;2.67;;
10653;SDS011;5375;51.250;6.776;2022-11-20T22:41:01;3.87;;;2.60;;
10653;SDS011;5375;51.250;6.776;2022-11-20T22:43:28;4.83;;;2.73;;
10653;SDS011;5375;51.250;6.776;2022-11-20T22:46:02;3.70;;;2.30;;
10653;SDS011;5375;51.250;6.776;2022-11-20T22:48:38;3.50;;;2.50;;
10653;SDS011;5375;51.250;6.776;2022-11-20T22:51:06;4.03;;;2.50;;
10653;SDS011;5375;51.250;6.776;2022-11-20T22:53:34;3.50;;;2.40;;
10653;SDS011;5375;51.250;6.776;2022-11-20T22:56:00;3.33;;;2.50;;
10653;SDS011;5375;51.250;6.776;2022-11-20T22:58:27;5.67;;;2.63;;
10653;SDS011;5375;51.250;6.776;2022-11-20T23:01:16;3.37;;;2.50;;
10653;SDS011;5375;51.250;6.776;2022-11-20T23:03:55;4.27;;;2.57;;
10653;SDS011;5375;51.250;6.776;2022-11-20T23:06:23;3.60;;;2.60;;
10653;SDS011;5375;51.250;6.776;2022-11-20T23:08:49;3.10;;;2.30;;
10653;SDS011;5375;51.250;6.776;2022-11-20T23:11:16;3.45;;;2.40;;
10653;SDS011;5375;51.250;6.776;2022-11-20T23:13:44;3.78;;;2.38;;
10653;SDS011;5375;51.250;6.776;2022-11-20T23:16:17;3.83;;;2.67;;